Time;durP1;ratioP1;P1;durP2;ratioP2;P2;SDS_P1;SDS_P2;PMS_P1;PMS_P2;Temp;Humidity;BMP_temperature;BMP_pressure;BME280_temperature;BME280_humidity;BME280_pressure;Samples;Min_cycle;Max_cycle;Signal;HPM_P1;HPM_P2
2023/05/21 00:01:44;;;;;;;0.30;0.30;;;22.50;45.00;;;;;;6246316;28;20034;-90
2023/05/21 00:04:46;;;;;;;0.47;0.32;;;23.00;45.90;;;;;;6236710;28;20046;-91
2023/05/21 00:07:52;;;;;;;0.30;0.30;;;22.80;45.80;;;;;;6221268;28;20057;-90
2023/05/21 00:10:56;;;;;;;0.52;0.40;;;22.60;45.30;;;;;;6237195;28;20047;-90
2023/05/21 00:13:58;;;;;;;0.30;0.30;;;21.40;44.20;;;;;;6237307;28;20158;-90
2023/05/21 00:17:00;;;;;;;0.50;0.50;;;22.60;45.20;;;;;;6220193;28;20038;-90
2023/05/21 00:20:06;;;;;;;0.40;0.35;;;23.60;46.10;;;;;;6220618;28;20042;-90
2023/05/21 00:23:11;;;;;;;0.32;0.30;;;22.60;45.00;;;;;;6236354;28;20049;-90
2023/05/21 00:26:13;;;;;;;0.80;0.43;;;22.40;43.60;;;;;;6237276;28;20046;-90
2023/05/21 00:29:16;;;;;;;0.40;0.30;;;20.90;44.50;;;;;;6237249;28;20050;-90
2023/05/21 00:32:22;;;;;;;0.52;0.30;;;22.70;46.10;;;;;;6237052;28;20042;-90
2023/05/21 00:35:24;;;;;;;0.45;0.40;;;23.40;45.40;;;;;;6237963;28;20046;-90
2023/05/21 00:38:28;;;;;;;0.47;0.40;;;21.60;45.10;;;;;;6237971;28;20042;-90
2023/05/21 00:41:30;;;;;;;0.73;0.40;;;22.40;46.30;;;;;;6238247;28;20054;-90
2023/05/21 00:44:34;;;;;;;0.40;0.40;;;22.40;46.00;;;;;;6237051;28;20047;-90
2023/05/21 00:47:36;;;;;;;0.55;0.30;;;22.60;46.30;;;;;;6238542;28;20042;-90
2023/05/21 00:50:39;;;;;;;0.80;0.50;;;24.40;46.70;;;;;;6238050;28;20045;-90
2023/05/21 00:53:45;;;;;;;0.70;0.60;;;22.20;45.50;;;;;;6237249;28;20110;-90
2023/05/21 00:56:47;;;;;;;0.60;0.40;;;22.20;45.30;;;;;;6221642;28;20050;-90
2023/05/21 00:59:55;;;;;;;0.40;0.40;;;22.40;45.80;;;;;;6223764;28;20042;-90
2023/05/21 01:02:57;;;;;;;0.63;0.50;;;23.00;46.90;;;;;;6241403;28;20098;-90
2023/05/21 01:05:59;;;;;;;0.70;0.50;;;22.00;45.90;;;;;;6241572;28;20249;-90
2023/05/21 01:09:05;;;;;;;0.60;0.50;;;22.70;46.30;;;;;;6242013;28;20294;-90
2023/05/21 01:12:07;;;;;;;0.50;0.50;;;22.10;45.50;;;;;;6224642;28;20094;-90
2023/05/21 01:15:10;;;;;;;0.70;0.40;;;20.90;44.90;;;;;;6240743;28;20042;-91
2023/05/21 01:18:14;;;;;;;0.55;0.35;;;22.70;46.20;;;;;;6240035;28;20061;-90
2023/05/21 01:21:24;;;;;;;0.68;0.52;;;22.60;46.50;;;;;;6240610;28;20062;-90
2023/05/21 01:24:27;;;;;;;0.60;0.40;;;22.50;45.70;;;;;;6239767;28;20049;-90
2023/05/21 01:27:29;;;;;;;0.90;0.70;;;22.20;46.70;;;;;;6224558;28;20050;-90
2023/05/21 01:30:31;;;;;;;0.75;0.52;;;21.80;46.10;;;;;;6240049;28;20039;-90
2023/05/21 01:33:40;;;;;;;0.50;0.40;;;22.40;46.70;;;;;;6222901;28;20046;-90
2023/05/21 01:36:53;;;;;;;0.38;0.38;;;22.30;46.30;;;;;;6239369;28;20054;-90
2023/05/21 01:40:02;;;;;;;0.63;0.38;;;22.20;46.00;;;;;;6239427;28;20061;-90
2023/05/21 01:43:06;;;;;;;0.40;0.35;;;22.60;46.10;;;;;;6207320;28;20073;-90
2023/05/21 01:46:12;;;;;;;0.70;0.40;;;19.90;44.40;;;;;;6222618;28;20138;-90
2023/05/21 01:49:15;;;;;;;0.60;0.50;;;22.60;45.80;;;;;;6205102;28;20118;-90
2023/05/21 01:52:17;;;;;;;0.68;0.50;;;21.80;45.70;;;;;;6221622;28;20347;-90
2023/05/21 01:55:23;;;;;;;0.60;0.40;;;22.10;45.70;;;;;;6237908;28;20047;-90
2023/05/21 01:58:25;;;;;;;0.60;0.43;;;21.10;45.30;;;;;;6237264;28;20042;-90
2023/05/21 02:01:29;;;;;;;0.57;0.40;;;23.50;46.90;;;;;;6221866;28;20054;-90
2023/05/21 02:04:30;;;;;;;0.60;0.40;;;22.00;46.70;;;;;;6222360;28;20090;-90
2023/05/21 02:07:33;;;;;;;0.63;0.30;;;21.80;46.60;;;;;;6251291;23;20111;-49
2023/05/21 02:10:38;;;;;;;1.10;0.40;;;22.60;46.40;;;;;;6217046;28;20049;-50
2023/05/21 02:13:41;;;;;;;0.45;0.30;;;22.40;46.00;;;;;;6216565;28;20045;-52
2023/05/21 02:16:43;;;;;;;0.77;0.40;;;22.40;46.10;;;;;;6217327;28;20088;-51
2023/05/21 02:19:48;;;;;;;0.50;0.40;;;22.50;46.00;;;;;;6217123;28;20513;-48
2023/05/21 02:22:49;;;;;;;0.43;0.40;;;22.40;46.20;;;;;;6215776;28;20034;-48
2023/05/21 02:25:51;;;;;;;;;;;22.40;46.20;;;;;;6216348;28;20042;-48
2023/05/21 02:28:54;;;;;;;0.40;0.30;;;22.20;46.30;;;;;;6216985;28;19921;-52
2023/05/21 02:31:56;;;;;;;0.30;0.30;;;22.40;46.60;;;;;;6215575;28;20278;-48
2023/05/21 02:34:57;;;;;;;0.50;0.32;;;22.40;49.10;;;;;;6216736;28;20061;-48
2023/05/21 02:38:01;;;;;;;;;;;22.40;45.90;;;;;;6216586;28;20088;-49
2023/05/21 02:41:04;;;;;;;0.30;0.30;;;22.30;46.30;;;;;;6216890;28;19922;-50
2023/05/21 02:44:05;;;;;;;0.73;0.40;;;22.10;45.50;;;;;;6216855;28;20073;-45
2023/05/21 02:47:09;;;;;;;0.57;0.40;;;22.40;45.90;;;;;;6216205;28;20057;-47
2023/05/21 02:50:14;;;;;;;0.38;0.30;;;22.40;45.80;;;;;;6216350;28;20042;-51
2023/05/21 02:53:25;;;;;;;0.70;0.50;;;22.30;45.70;;;;;;6217190;28;20403;-51
2023/05/21 02:56:27;;;;;;;0.93;0.40;;;22.40;45.80;;;;;;6209467;28;20050;-50
2023/05/21 02:59:30;;;;;;;0.82;0.30;;;22.00;45.50;;;;;;6192775;28;20497;-48
2023/05/21 03:02:33;;;;;;;0.60;0.40;;;22.10;46.10;;;;;;6192054;28;20038;-49
2023/05/21 03:05:35;;;;;;;0.60;0.50;;;22.40;46.10;;;;;;6192209;28;20456;-50
2023/05/21 03:08:36;;;;;;;1.00;0.43;;;22.30;45.90;;;;;;6191832;28;20058;-50
2023/05/21 03:11:46;;;;;;;1.08;0.55;;;22.30;45.90;;;;;;6188315;28;20031;-49
2023/05/21 03:14:50;;;;;;;0.47;0.40;;;21.90;45.50;;;;;;6191605;28;20087;-52
2023/05/21 03:17:52;;;;;;;0.40;0.40;;;22.00;45.70;;;;;;6190703;28;20128;-51
2023/05/21 03:20:54;;;;;;;0.30;0.20;;;22.10;45.80;;;;;;6191353;28;20072;-48
2023/05/21 03:24:05;;;;;;;0.60;0.40;;;22.50;46.40;;;;;;6191917;28;20382;-51
2023/05/21 03:27:07;;;;;;;0.70;0.30;;;22.00;45.70;;;;;;6191884;28;20288;-52
2023/05/21 03:30:09;;;;;;;0.68;0.40;;;22.30;45.70;;;;;;6191480;28;20477;-49
2023/05/21 03:33:24;;;;;;;0.40;0.35;;;20.90;45.00;;;;;;6191543;28;20576;-50
2023/05/21 03:36:27;;;;;;;0.60;0.45;;;22.30;45.90;;;;;;6191317;28;20097;-52
2023/05/21 03:39:34;;;;;;;0.82;0.40;;;22.30;46.30;;;;;;6191497;28;20247;-47
2023/05/21 03:42:36;;;;;;;0.38;0.38;;;21.90;46.00;;;;;;6191318;28;20327;-49
2023/05/21 03:45:37;;;;;;;0.60;0.30;;;22.30;46.10;;;;;;6191524;28;20042;-51
2023/05/21 03:49:04;;;;;;;0.95;0.50;;;22.20;46.20;;;;;;6191169;28;20366;-50
2023/05/21 03:52:07;;;;;;;0.45;0.30;;;22.20;46.30;;;;;;6190983;28;20173;-51
2023/05/21 03:55:09;;;;;;;0.70;0.35;;;22.10;46.20;;;;;;6190851;28;20057;-49
2023/05/21 03:58:12;;;;;;;0.40;0.30;;;22.20;46.40;;;;;;6190766;28;20089;-48
2023/05/21 04:01:18;;;;;;;0.82;0.40;;;21.90;46.40;;;;;;6191457;28;20041;-50
2023/05/21 04:04:22;;;;;;;0.60;0.30;;;22.20;46.20;;;;;;6191104;28;20034;-50
2023/05/21 04:07:23;;;;;;;0.95;0.68;;;22.20;46.70;;;;;;6190682;28;20046;-49
2023/05/21 04:10:25;;;;;;;;;;;22.00;46.20;;;;;;6191257;28;20046;-48
2023/05/21 04:13:27;;;;;;;0.80;0.45;;;22.00;46.70;;;;;;6190162;28;20301;-49
2023/05/21 04:16:29;;;;;;;0.60;0.47;;;21.80;46.10;;;;;;6189828;28;20034;-49
2023/05/21 04:19:30;;;;;;;0.40;0.30;;;22.10;46.40;;;;;;6188581;28;20137;-49
2023/05/21 04:22:35;;;;;;;0.40;0.30;;;22.10;47.00;;;;;;6188525;28;20038;-51
2023/05/21 04:25:37;;;;;;;0.57;0.35;;;22.20;46.70;;;;;;6189284;28;20045;-49
2023/05/21 04:28:41;;;;;;;0.52;0.35;;;22.20;46.60;;;;;;6188807;28;20039;-51
2023/05/21 04:31:44;;;;;;;0.40;0.30;;;22.20;46.40;;;;;;6189011;28;20042;-47
2023/05/21 04:34:48;;;;;;;0.35;0.30;;;22.10;46.50;;;;;;6192423;28;20521;-49
2023/05/21 04:37:53;;;;;;;0.50;0.30;;;21.70;46.90;;;;;;6192742;28;20042;-47
2023/05/21 04:40:57;;;;;;;0.40;0.30;;;22.10;47.10;;;;;;6192986;28;20545;-50
2023/05/21 04:43:59;;;;;;;0.85;0.57;;;22.00;54.10;;;;;;6193229;28;20735;-49
2023/05/21 04:47:06;;;;;;;0.65;0.35;;;22.10;47.10;;;;;;6193134;28;20365;-49
2023/05/21 04:50:10;;;;;;;0.77;0.30;;;22.00;46.90;;;;;;6175823;28;20047;-51
2023/05/21 04:53:13;;;;;;;0.38;0.30;;;22.00;47.10;;;;;;6192198;28;20042;-50
2023/05/21 04:56:16;;;;;;;0.38;0.25;;;22.10;47.00;;;;;;6192424;28;20042;-50
2023/05/21 04:59:18;;;;;;;0.38;0.30;;;22.10;47.10;;;;;;6191995;28;20068;-49
2023/05/21 05:02:20;;;;;;;0.80;0.50;;;22.10;47.10;;;;;;6192147;28;20042;-47
2023/05/21 05:05:22;;;;;;;;;;;22.10;47.30;;;;;;6193122;28;20077;-52
2023/05/21 05:08:23;;;;;;;0.68;0.40;;;22.30;47.80;;;;;;6192347;28;19937;-50
2023/05/21 05:11:25;;;;;;;0.85;0.30;;;22.00;47.40;;;;;;6191984;28;20065;-46
2023/05/21 05:14:27;;;;;;;0.47;0.30;;;22.10;50.60;;;;;;6192795;28;20412;-47
2023/05/21 05:17:29;;;;;;;0.57;0.40;;;21.90;47.80;;;;;;6192574;28;20409;-52
2023/05/21 05:20:32;;;;;;;0.90;0.50;;;21.80;47.20;;;;;;6192424;28;20038;-49
2023/05/21 05:23:33;;;;;;;;;;;21.90;47.20;;;;;;6192536;28;20045;-48
2023/05/21 05:26:35;;;;;;;0.50;0.40;;;22.40;47.90;;;;;;6192407;28;19976;-51
2023/05/21 05:29:37;;;;;;;;;;;22.10;47.60;;;;;;6192471;28;20113;-49
2023/05/21 05:32:39;;;;;;;0.57;0.35;;;22.30;48.00;;;;;;6192001;28;19929;-50
2023/05/21 05:35:41;;;;;;;1.27;0.50;;;22.10;47.80;;;;;;6191754;28;20563;-47
2023/05/21 05:38:42;;;;;;;;;;;22.10;48.10;;;;;;6192228;28;20560;-52
2023/05/21 05:41:47;;;;;;;0.40;0.40;;;22.00;48.30;;;;;;6191624;28;19945;-48
2023/05/21 05:44:50;;;;;;;0.45;0.45;;;22.00;48.20;;;;;;6190239;28;20035;-53
2023/05/21 05:47:52;;;;;;;0.70;0.40;;;22.80;48.80;;;;;;6191786;28;20038;-50
2023/05/21 05:50:53;;;;;;;0.68;0.30;;;21.70;48.20;;;;;;6191616;28;20041;-48
2023/05/21 05:53:56;;;;;;;0.60;0.40;;;22.00;48.30;;;;;;6191297;28;20442;-48
2023/05/21 05:56:58;;;;;;;0.60;0.43;;;22.10;48.70;;;;;;6191567;28;20573;-49
2023/05/21 06:00:02;;;;;;;0.40;0.40;;;21.40;48.30;;;;;;6191231;28;20045;-50
2023/05/21 06:03:13;;;;;;;1.23;0.50;;;22.10;48.70;;;;;;6189622;28;20072;-49
2023/05/21 06:06:16;;;;;;;0.85;0.38;;;22.10;48.70;;;;;;6189884;28;20509;-50
2023/05/21 06:09:20;;;;;;;0.70;0.60;;;22.00;49.40;;;;;;6189500;28;20354;-48
2023/05/21 06:12:22;;;;;;;0.70;0.43;;;22.00;49.10;;;;;;6188624;28;20089;-51
2023/05/21 06:15:24;;;;;;;;;;;22.10;49.60;;;;;;6189711;28;20041;-46
2023/05/21 06:18:27;;;;;;;0.52;0.50;;;22.10;49.70;;;;;;6189711;28;20025;-50
2023/05/21 06:21:28;;;;;;;0.70;0.40;;;21.80;49.40;;;;;;6189232;28;20049;-50
2023/05/21 06:24:30;;;;;;;0.40;0.40;;;22.00;49.70;;;;;;6189745;28;20035;-52
2023/05/21 06:27:32;;;;;;;1.20;0.70;;;22.20;49.90;;;;;;6189700;28;20049;-51
2023/05/21 06:30:35;;;;;;;0.73;0.57;;;22.10;50.20;;;;;;6189132;28;20041;-50
2023/05/21 06:33:37;;;;;;;0.63;0.47;;;22.30;50.10;;;;;;6189313;28;20034;-50
2023/05/21 06:36:39;;;;;;;0.70;0.50;;;22.00;50.30;;;;;;6188939;28;20026;-50
2023/05/21 06:39:41;;;;;;;0.70;0.50;;;22.00;50.50;;;;;;6189014;28;20233;-50
2023/05/21 06:42:43;;;;;;;0.50;0.47;;;20.80;48.00;;;;;;6189102;28;20039;-50
2023/05/21 06:46:02;;;;;;;0.65;0.60;;;22.20;50.80;;;;;;6188800;28;20121;-48
2023/05/21 06:49:17;;;;;;;0.43;0.40;;;22.10;50.40;;;;;;6188386;28;20414;-48
2023/05/21 06:52:19;;;;;;;0.63;0.40;;;22.10;48.90;;;;;;6188645;28;20073;-48
2023/05/21 06:55:21;;;;;;;0.75;0.40;;;22.20;50.80;;;;;;6188396;28;20039;-51
2023/05/21 06:58:42;;;;;;;0.60;0.40;;;22.10;50.70;;;;;;6188617;28;20049;-46
2023/05/21 07:01:44;;;;;;;0.50;0.43;;;21.70;50.10;;;;;;6188735;28;20536;-50
2023/05/21 07:04:50;;;;;;;0.80;0.65;;;22.30;50.60;;;;;;6188932;28;20081;-50
2023/05/21 07:07:52;;;;;;;0.63;0.47;;;22.30;50.40;;;;;;6188162;28;20513;-50
2023/05/21 07:10:55;;;;;;;;;;;22.20;53.10;;;;;;6189186;28;20125;-48
2023/05/21 07:13:59;;;;;;;1.60;0.50;;;22.20;62.20;;;;;;6188224;28;19967;-48
2023/05/21 07:17:01;;;;;;;0.68;0.60;;;22.20;50.80;;;;;;6187445;28;20031;-51
2023/05/21 07:20:06;;;;;;;0.60;0.50;;;22.40;50.30;;;;;;6188330;28;20092;-51
2023/05/21 07:23:08;;;;;;;0.65;0.40;;;22.20;50.40;;;;;;6188281;28;20070;-47
2023/05/21 07:26:09;;;;;;;;;;;22.10;50.10;;;;;;6188498;28;20514;-49
2023/05/21 07:29:13;;;;;;;0.52;0.30;;;22.40;50.80;;;;;;6188016;28;19951;-47
2023/05/21 07:32:15;;;;;;;0.60;0.50;;;22.20;50.50;;;;;;6185057;28;20039;-51
2023/05/21 07:35:18;;;;;;;0.85;0.60;;;22.20;50.80;;;;;;6188125;28;20046;-50
2023/05/21 07:38:19;;;;;;;0.60;0.40;;;22.30;50.90;;;;;;6187787;28;20448;-47
2023/05/21 07:41:21;;;;;;;0.75;0.35;;;22.20;50.90;;;;;;6187819;28;20038;-48
2023/05/21 07:44:24;;;;;;;0.40;0.40;;;22.30;51.00;;;;;;6187537;28;20030;-48
2023/05/21 07:47:27;;;;;;;0.50;0.43;;;22.30;51.20;;;;;;6186603;28;20654;-49
2023/05/21 07:50:28;;;;;;;0.38;0.38;;;21.90;51.40;;;;;;6187143;28;20049;-48
2023/05/21 07:53:31;;;;;;;0.77;0.68;;;22.40;51.30;;;;;;6187616;28;20045;-50
2023/05/21 07:56:35;;;;;;;0.95;0.55;;;21.20;50.60;;;;;;6187394;28;20163;-49
2023/05/21 07:59:37;;;;;;;0.88;0.45;;;22.30;51.20;;;;;;6186355;28;20041;-48
2023/05/21 08:02:39;;;;;;;;;;;22.40;51.40;;;;;;6187960;28;20517;-50
2023/05/21 08:05:47;;;;;;;0.60;0.57;;;22.60;51.80;;;;;;6185635;28;20408;-50
2023/05/21 08:08:49;;;;;;;0.80;0.68;;;22.20;51.40;;;;;;6186243;28;20066;-49
2023/05/21 08:11:52;;;;;;;0.70;0.40;;;22.30;51.50;;;;;;6187608;28;20034;-48
2023/05/21 08:14:53;;;;;;;;;;;22.40;51.70;;;;;;6187829;28;20039;-53
2023/05/21 08:17:56;;;;;;;0.93;0.63;;;22.50;52.00;;;;;;6186489;28;20379;-49
2023/05/21 08:20:59;;;;;;;0.85;0.63;;;22.00;51.40;;;;;;6186244;28;20050;-51
2023/05/21 08:24:01;;;;;;;0.95;0.55;;;22.40;51.80;;;;;;6187265;28;20093;-50
2023/05/21 08:27:04;;;;;;;1.08;0.60;;;22.40;51.90;;;;;;6186514;28;20121;-48
2023/05/21 08:30:06;;;;;;;0.47;0.45;;;22.50;51.90;;;;;;6187231;28;20548;-48
2023/05/21 08:33:10;;;;;;;0.98;0.52;;;22.40;51.60;;;;;;6187073;28;20506;-51
2023/05/21 08:36:12;;;;;;;0.43;0.43;;;22.30;51.80;;;;;;6187125;28;20042;-47
2023/05/21 08:39:22;;;;;;;0.60;0.50;;;22.40;51.80;;;;;;6186522;28;20046;-50
2023/05/21 08:42:32;;;;;;;1.33;0.50;;;22.40;52.10;;;;;;6187191;28;20320;-50
2023/05/21 08:45:43;;;;;;;0.85;0.70;;;22.40;52.00;;;;;;6186695;28;20034;-50
2023/05/21 08:48:46;;;;;;;0.63;0.60;;;21.30;51.60;;;;;;6170013;28;20044;-50
2023/05/21 08:51:49;;;;;;;0.65;0.50;;;22.40;52.40;;;;;;6186225;28;20076;-49
2023/05/21 08:54:51;;;;;;;0.50;0.50;;;22.50;52.80;;;;;;6186417;28;20077;-48
2023/05/21 08:57:54;;;;;;;0.70;0.68;;;22.50;52.60;;;;;;6186304;28;20030;-48
2023/05/21 09:00:57;;;;;;;0.45;0.43;;;22.10;52.40;;;;;;6185709;28;20042;-49
2023/05/21 09:04:04;;;;;;;0.57;0.40;;;22.40;52.70;;;;;;6186454;28;20126;-51
2023/05/21 09:07:26;;;;;;;0.60;0.57;;;22.20;52.20;;;;;;6186409;28;20536;-48
2023/05/21 09:10:48;;;;;;;1.05;0.60;;;22.60;54.40;;;;;;6185489;28;20046;-48
2023/05/21 09:13:51;;;;;;;0.98;0.85;;;22.70;52.80;;;;;;6186789;28;20050;-51
2023/05/21 09:16:59;;;;;;;0.90;0.63;;;22.20;55.10;;;;;;6186226;28;20108;-50
2023/05/21 09:20:08;;;;;;;0.70;0.60;;;22.60;53.30;;;;;;6188060;28;20564;-51
2023/05/21 09:23:15;;;;;;;0.68;0.60;;;22.60;53.30;;;;;;6190230;28;20046;-48
2023/05/21 09:26:20;;;;;;;0.57;0.52;;;22.50;53.50;;;;;;6190559;28;20580;-51
2023/05/21 09:29:22;;;;;;;0.70;0.57;;;22.50;52.60;;;;;;6189365;28;20039;-51
2023/05/21 09:32:27;;;;;;;0.47;0.45;;;22.60;53.30;;;;;;6190465;28;20427;-51
2023/05/21 09:35:31;;;;;;;1.00;0.75;;;22.20;53.60;;;;;;6190732;28;20382;-49
2023/05/21 09:38:33;;;;;;;0.70;0.55;;;22.70;53.90;;;;;;6190363;28;20045;-51
2023/05/21 09:41:36;;;;;;;1.05;0.57;;;22.60;53.50;;;;;;6189803;28;20235;-49
2023/05/21 09:44:42;;;;;;;0.80;0.60;;;22.60;53.70;;;;;;6188630;28;20042;-47
2023/05/21 09:47:44;;;;;;;0.68;0.57;;;22.80;54.40;;;;;;6189725;28;20034;-47
2023/05/21 09:50:46;;;;;;;0.60;0.60;;;22.50;52.90;;;;;;6189941;28;20046;-50
2023/05/21 09:53:53;;;;;;;0.60;0.60;;;22.60;53.10;;;;;;6189315;28;20046;-51
2023/05/21 09:56:54;;;;;;;0.88;0.52;;;22.70;52.40;;;;;;6188183;28;20050;-47
2023/05/21 09:59:56;;;;;;;;;;;22.70;52.50;;;;;;6189704;28;20038;-47
2023/05/21 10:03:00;;;;;;;0.82;0.73;;;22.80;52.80;;;;;;6190299;28;19988;-50
2023/05/21 10:06:04;;;;;;;0.85;0.70;;;22.10;52.00;;;;;;6189023;28;20100;-48
2023/05/21 10:09:09;;;;;;;0.60;0.60;;;22.80;52.40;;;;;;6189493;28;20310;-48
2023/05/21 10:12:11;;;;;;;0.70;0.60;;;22.80;52.40;;;;;;6189202;28;20034;-51
2023/05/21 10:15:15;;;;;;;0.70;0.70;;;22.80;52.60;;;;;;6189595;28;20034;-48
2023/05/21 10:18:20;;;;;;;0.68;0.60;;;22.80;53.20;;;;;;6189733;28;20046;-49
2023/05/21 10:21:22;;;;;;;0.70;0.52;;;22.90;53.10;;;;;;6188156;28;20461;-51
2023/05/21 10:24:24;;;;;;;0.60;0.60;;;22.90;53.00;;;;;;6189508;28;20409;-50
2023/05/21 10:27:28;;;;;;;0.93;0.82;;;22.90;53.00;;;;;;6189313;28;20037;-50
2023/05/21 10:30:33;;;;;;;1.10;0.93;;;22.90;52.80;;;;;;6188710;28;20042;-48
2023/05/21 10:33:35;;;;;;;0.80;0.73;;;22.80;52.70;;;;;;6188138;28;20043;-49
2023/05/21 10:36:39;;;;;;;0.68;0.57;;;22.60;52.50;;;;;;6187749;28;20045;-49
2023/05/21 10:39:42;;;;;;;0.75;0.65;;;22.20;52.30;;;;;;6189383;28;20449;-49
2023/05/21 10:43:12;;;;;;;1.08;0.80;;;22.80;52.60;;;;;;6189228;28;20085;-48
2023/05/21 10:46:33;;;;;;;0.90;0.60;;;23.00;52.70;;;;;;6189500;28;20034;-50
2023/05/21 10:49:43;;;;;;;;;;;23.00;52.70;;;;;;6189622;28;20035;-50
2023/05/21 10:52:57;;;;;;;0.50;0.50;;;22.90;52.80;;;;;;6188624;28;20272;-49
2023/05/21 10:56:12;;;;;;;0.82;0.82;;;23.10;52.50;;;;;;6188491;28;20042;-47
2023/05/21 10:59:24;;;;;;;1.20;0.65;;;23.10;52.50;;;;;;6188607;28;20118;-48
2023/05/21 11:02:27;;;;;;;0.90;0.80;;;23.10;52.30;;;;;;6188744;28;20601;-48
2023/05/21 11:05:38;;;;;;;1.00;0.70;;;23.10;52.40;;;;;;6188738;28;20434;-52
2023/05/21 11:08:46;;;;;;;0.88;0.70;;;23.20;52.50;;;;;;6188500;28;20046;-49
2023/05/21 11:11:50;;;;;;;0.65;0.65;;;23.10;52.50;;;;;;6188565;28;20038;-50
2023/05/21 11:14:56;;;;;;;0.70;0.60;;;23.00;52.20;;;;;;6186820;28;20053;-49
2023/05/21 11:17:58;;;;;;;1.00;0.80;;;23.20;52.20;;;;;;6188508;28;20097;-47
2023/05/21 11:21:03;;;;;;;0.85;0.70;;;23.30;51.70;;;;;;6188414;28;20065;-49
2023/05/21 11:24:09;;;;;;;0.70;0.70;;;23.10;52.50;;;;;;6188527;28;20042;-49
2023/05/21 11:27:11;;;;;;;0.93;0.88;;;23.40;52.00;;;;;;6188505;28;20379;-52
2023/05/21 11:30:14;;;;;;;;;;;23.30;52.50;;;;;;6188964;28;20066;-47
2023/05/21 11:33:17;;;;;;;1.08;0.98;;;23.30;52.50;;;;;;6187214;28;20404;-47
2023/05/21 11:36:18;;;;;;;0.80;0.75;;;23.40;52.30;;;;;;6186411;28;20413;-48
2023/05/21 11:39:25;;;;;;;0.77;0.73;;;23.50;52.30;;;;;;6187745;28;20077;-50
2023/05/21 11:42:29;;;;;;;0.80;0.70;;;23.50;52.50;;;;;;6186467;28;20101;-48
2023/05/21 11:45:32;;;;;;;0.98;0.88;;;23.10;52.00;;;;;;6186665;28;20034;-47
2023/05/21 11:48:35;;;;;;;0.70;0.65;;;23.40;52.30;;;;;;6168875;28;20604;-48
2023/05/21 11:51:40;;;;;;;0.80;0.77;;;23.40;52.00;;;;;;6187205;28;20142;-51
2023/05/21 11:54:45;;;;;;;0.98;0.80;;;23.50;52.10;;;;;;6187389;28;20193;-48
2023/05/21 11:57:51;;;;;;;0.80;0.80;;;23.30;52.10;;;;;;6170457;28;20678;-52
2023/05/21 12:00:52;;;;;;;1.10;0.77;;;23.30;53.00;;;;;;6185551;28;20042;-47
2023/05/21 12:03:54;;;;;;;1.10;0.98;;;23.50;52.10;;;;;;6186375;28;20299;-47
2023/05/21 12:06:58;;;;;;;1.02;0.80;;;23.30;52.00;;;;;;6184086;28;20197;-51
2023/05/21 12:10:00;;;;;;;;;;;23.60;52.50;;;;;;6183267;28;20544;-46
2023/05/21 12:13:04;;;;;;;0.88;0.80;;;23.60;52.30;;;;;;6185843;28;20055;-47
2023/05/21 12:16:07;;;;;;;0.88;0.70;;;23.10;51.80;;;;;;6185509;28;20061;-50
2023/05/21 12:19:09;;;;;;;0.75;0.70;;;23.60;52.00;;;;;;6186799;28;20101;-51
2023/05/21 12:22:11;;;;;;;0.82;0.82;;;23.70;53.10;;;;;;6187694;28;20050;-49
2023/05/21 12:25:13;;;;;;;0.93;0.82;;;23.60;53.30;;;;;;6186108;28;20045;-49
2023/05/21 12:28:15;;;;;;;1.17;0.85;;;23.60;52.90;;;;;;6187623;28;20116;-48
2023/05/21 12:31:16;;;;;;;0.80;0.80;;;23.70;52.00;;;;;;6186169;28;20258;-49
2023/05/21 12:34:36;;;;;;;0.93;0.82;;;23.70;51.90;;;;;;6184807;28;20042;-50
2023/05/21 12:37:38;;;;;;;0.80;0.80;;;23.90;51.90;;;;;;6185171;28;20034;-50
2023/05/21 12:40:41;;;;;;;;;;;23.80;51.80;;;;;;6187311;28;20042;-47
2023/05/21 12:43:43;;;;;;;0.88;0.80;;;24.00;52.00;;;;;;6186993;28;19968;-50
2023/05/21 12:46:44;;;;;;;0.90;0.80;;;23.90;51.60;;;;;;6186010;28;20066;-47
2023/05/21 12:49:46;;;;;;;1.13;0.85;;;23.80;51.40;;;;;;6182978;28;20077;-47
2023/05/21 12:52:48;;;;;;;0.82;0.73;;;23.70;52.00;;;;;;6186354;28;20043;-49
2023/05/21 12:55:50;;;;;;;0.82;0.80;;;23.90;51.50;;;;;;6189731;28;20537;-46
2023/05/21 12:58:53;;;;;;;1.67;0.90;;;23.90;51.30;;;;;;6190807;28;20525;-48
2023/05/21 13:01:56;;;;;;;0.88;0.80;;;24.00;52.30;;;;;;6190579;28;20038;-48
2023/05/21 13:05:00;;;;;;;1.23;0.88;;;24.00;53.70;;;;;;6190252;28;20038;-49
2023/05/21 13:08:02;;;;;;;0.93;0.75;;;24.00;52.30;;;;;;6189624;28;20351;-49
2023/05/21 13:11:04;;;;;;;0.88;0.80;;;23.80;52.40;;;;;;6190225;28;20042;-50
2023/05/21 13:14:09;;;;;;;0.88;0.77;;;23.80;51.50;;;;;;6189846;28;20039;-46
2023/05/21 13:17:10;;;;;;;0.60;0.60;;;24.00;51.30;;;;;;6188277;28;20424;-50
2023/05/21 13:20:13;;;;;;;0.80;0.80;;;24.10;51.40;;;;;;6188949;28;20042;-49
2023/05/21 13:23:15;;;;;;;0.70;0.70;;;24.20;51.20;;;;;;6188956;28;20589;-49
2023/05/21 13:26:17;;;;;;;1.00;0.80;;;24.10;51.40;;;;;;6189834;28;20038;-46
2023/05/21 13:29:18;;;;;;;0.93;0.85;;;24.00;51.10;;;;;;6190278;28;20298;-49
2023/05/21 13:32:22;;;;;;;0.77;0.70;;;24.20;51.30;;;;;;6190361;28;20482;-45
2023/05/21 13:35:23;;;;;;;0.70;0.70;;;24.00;51.00;;;;;;6224181;28;20061;-51
2023/05/21 13:38:25;;;;;;;0.70;0.70;;;24.20;51.10;;;;;;6226820;28;20046;-49
2023/05/21 13:41:27;;;;;;;0.68;0.68;;;24.20;50.90;;;;;;6226275;28;20050;-47
2023/05/21 13:44:32;;;;;;;0.85;0.85;;;24.10;50.90;;;;;;6225785;28;20061;-50
2023/05/21 13:47:33;;;;;;;0.70;0.70;;;24.30;50.90;;;;;;6226408;28;20042;-47
2023/05/21 13:50:36;;;;;;;0.82;0.70;;;24.10;50.80;;;;;;6226280;28;20320;-45
2023/05/21 13:53:39;;;;;;;0.90;0.80;;;24.20;50.70;;;;;;6227313;28;20046;-48
2023/05/21 13:56:41;;;;;;;0.60;0.60;;;24.30;50.70;;;;;;6227642;28;20038;-47
2023/05/21 13:59:43;;;;;;;0.68;0.63;;;24.20;50.50;;;;;;6311842;23;20058;-49
2023/05/21 14:02:44;;;;;;;0.68;0.60;;;24.20;50.70;;;;;;6247358;28;20056;-49
2023/05/21 14:05:50;;;;;;;0.68;0.68;;;24.20;50.40;;;;;;6246600;28;20102;-49
2023/05/21 14:08:51;;;;;;;1.00;0.80;;;24.30;50.40;;;;;;6247224;28;20042;-52
2023/05/21 14:11:54;;;;;;;0.60;0.60;;;24.20;50.30;;;;;;6247123;28;20037;-53
2023/05/21 14:14:56;;;;;;;0.70;0.60;;;24.20;50.20;;;;;;6244941;28;20034;-54
2023/05/21 14:17:58;;;;;;;0.75;0.70;;;24.20;50.20;;;;;;6244512;28;20042;-53
2023/05/21 14:20:59;;;;;;;0.88;0.60;;;24.10;50.20;;;;;;6244638;28;20133;-51
2023/05/21 14:24:00;;;;;;;0.85;0.85;;;23.90;50.10;;;;;;6244745;28;20068;-53
2023/05/21 14:27:03;;;;;;;0.77;0.77;;;24.10;50.20;;;;;;6244529;28;20311;-51
2023/05/21 14:30:06;;;;;;;0.90;0.70;;;23.90;50.00;;;;;;6244631;28;20053;-51
2023/05/21 14:33:07;;;;;;;0.90;0.80;;;24.00;50.00;;;;;;6244108;28;20063;-54
2023/05/21 14:36:09;;;;;;;0.65;0.65;;;24.10;50.00;;;;;;6244072;28;20034;-53
2023/05/21 14:39:10;;;;;;;;;;;24.20;50.00;;;;;;6244518;28;20053;-54
2023/05/21 14:42:12;;;;;;;0.93;0.50;;;24.10;50.10;;;;;;6244717;28;19921;-52
2023/05/21 14:45:14;;;;;;;0.80;0.70;;;24.00;49.80;;;;;;6245075;28;20056;-52
2023/05/21 14:48:22;;;;;;;0.70;0.70;;;24.20;49.80;;;;;;6245507;28;20082;-51
2023/05/21 14:51:23;;;;;;;0.82;0.73;;;24.10;49.60;;;;;;6245469;28;20056;-53
2023/05/21 14:54:27;;;;;;;0.90;0.70;;;24.10;49.70;;;;;;6244661;28;20073;-54
2023/05/21 14:57:32;;;;;;;0.88;0.65;;;24.20;50.00;;;;;;6228141;28;20046;-49
2023/05/21 15:00:34;;;;;;;0.65;0.60;;;24.00;49.80;;;;;;6219439;28;20054;-50
2023/05/21 15:03:36;;;;;;;0.80;0.65;;;24.10;50.10;;;;;;6218807;28;20145;-52
2023/05/21 15:06:37;;;;;;;0.80;0.77;;;24.00;50.00;;;;;;6220013;28;20043;-51
2023/05/21 15:09:39;;;;;;;0.60;0.60;;;24.20;50.20;;;;;;6219698;28;20058;-52
2023/05/21 15:12:41;;;;;;;0.60;0.60;;;24.20;50.00;;;;;;6218645;28;20069;-53
2023/05/21 15:15:43;;;;;;;1.02;0.80;;;23.80;49.80;;;;;;6220512;28;20057;-52
2023/05/21 15:18:44;;;;;;;0.93;0.70;;;24.30;50.10;;;;;;6218896;28;20097;-54
2023/05/21 15:21:46;;;;;;;0.85;0.60;;;24.10;50.00;;;;;;6215628;28;20050;-50
2023/05/21 15:24:49;;;;;;;0.70;0.70;;;24.10;50.00;;;;;;6209296;28;20046;-49
2023/05/21 15:27:51;;;;;;;0.63;0.60;;;24.20;50.20;;;;;;6217511;28;20046;-52
2023/05/21 15:30:52;;;;;;;0.70;0.70;;;24.00;50.00;;;;;;6215069;28;20046;-51
2023/05/21 15:33:54;;;;;;;0.70;0.50;;;24.10;49.90;;;;;;6217741;28;20062;-54
2023/05/21 15:36:56;;;;;;;0.70;0.70;;;24.20;49.90;;;;;;6218446;28;20077;-54
2023/05/21 15:40:01;;;;;;;1.00;0.70;;;24.30;50.60;;;;;;6218790;28;20069;-52
2023/05/21 15:43:03;;;;;;;0.68;0.60;;;24.20;49.90;;;;;;6217403;28;20066;-52
2023/05/21 15:46:05;;;;;;;0.88;0.68;;;24.20;49.70;;;;;;6211325;28;20270;-53
2023/05/21 15:49:07;;;;;;;0.75;0.60;;;24.20;49.70;;;;;;6209775;28;20077;-52
2023/05/21 15:52:08;;;;;;;1.10;0.80;;;24.10;49.70;;;;;;6197900;28;20541;-56
2023/05/21 15:55:14;;;;;;;;;;;23.90;49.70;;;;;;6187635;28;20049;-51
2023/05/21 15:58:16;;;;;;;0.50;0.50;;;23.90;48.50;;;;;;6183006;28;19925;-57
2023/05/21 16:01:17;;;;;;;0.80;0.60;;;24.00;49.60;;;;;;6161916;28;20263;-55
2023/05/21 16:04:21;;;;;;;0.77;0.73;;;24.10;49.90;;;;;;6174912;28;20124;-57